Time;durP1;ratioP1;P1;durP2;ratioP2;P2;SDS_P1;SDS_P2;PMS_P1;PMS_P2;Temp;Humidity;BMP_temperature;BMP_pressure;BME280_temperature;BME280_humidity;BME280_pressure;Samples;Min_cycle;Max_cycle;Signal;HPM_P1;HPM_P2
2022/08/01 00:01:31;;;;;;;4.05;1.30;;;;;;;-148.56;100.00;61375.16;4920308;28;20027;-27
2022/08/01 00:03:57;;;;;;;2.60;1.20;;;;;;;-148.56;100.00;61375.16;4921673;28;21744;-27
2022/08/01 00:06:22;;;;;;;2.08;1.40;;;;;;;-148.56;100.00;61375.16;4928003;28;20459;-29
2022/08/01 00:08:48;;;;;;;2.63;1.27;;;;;;;-148.56;100.00;61375.16;4926571;28;20069;-26
2022/08/01 00:11:13;;;;;;;2.85;1.48;;;;;;;-148.56;100.00;61375.16;4923047;28;20111;-27
2022/08/01 00:13:39;;;;;;;2.00;1.25;;;;;;;-148.56;100.00;61375.16;4923133;28;20026;-31
2022/08/01 00:16:04;;;;;;;3.17;1.70;;;;;;;-148.56;100.00;61375.16;4925281;28;20065;-28
2022/08/01 00:18:30;;;;;;;1.63;1.35;;;;;;;-148.56;100.00;61375.16;4921697;28;20027;-27
2022/08/01 00:20:55;;;;;;;4.60;1.48;;;;;;;-148.56;100.00;61375.16;4924320;28;20038;-33
2022/08/01 00:23:21;;;;;;;2.45;1.50;;;;;;;-148.56;100.00;61375.16;4920121;28;20031;-27
2022/08/01 00:25:46;;;;;;;2.58;1.40;;;;;;;-148.56;100.00;61375.16;4923295;28;20466;-28
2022/08/01 00:28:13;;;;;;;5.25;1.77;;;;;;;-148.56;100.00;61375.16;4923024;28;20031;-29
2022/08/01 00:30:38;;;;;;;2.45;1.40;;;;;;;-148.56;100.00;61375.16;4921415;28;20140;-28
2022/08/01 00:33:04;;;;;;;1.65;1.33;;;;;;;-148.56;100.00;61375.16;4921491;28;20566;-27
2022/08/01 00:35:29;;;;;;;6.15;1.70;;;;;;;-148.56;100.00;61375.16;4925622;28;20054;-28
2022/08/01 00:37:54;;;;;;;2.83;1.25;;;;;;;-148.56;100.00;61375.16;4923400;28;21857;-30
2022/08/01 00:40:20;;;;;;;1.58;1.48;;;;;;;-148.56;100.00;61375.16;4925192;28;20093;-31
2022/08/01 00:42:45;;;;;;;2.45;1.42;;;;;;;-148.56;100.00;61375.16;4922760;28;20066;-28
2022/08/01 00:45:11;;;;;;;1.40;1.30;;;;;;;-148.56;100.00;61375.16;4928684;28;20039;-26
2022/08/01 00:47:37;;;;;;;2.75;1.40;;;;;;;-148.56;100.00;61375.16;4921621;28;23473;-32
2022/08/01 00:50:04;;;;;;;3.50;1.60;;;;;;;-148.56;100.00;61375.16;4928786;28;20034;-31
2022/08/01 00:52:29;;;;;;;1.67;1.50;;;;;;;-148.56;100.00;61375.16;4926106;28;20169;-29
2022/08/01 00:54:55;;;;;;;3.03;1.40;;;;;;;-148.56;100.00;61375.16;4923442;28;20035;-30
2022/08/01 00:57:20;;;;;;;2.75;1.55;;;;;;;-148.56;100.00;61375.16;4921589;28;20038;-28
2022/08/01 00:59:45;;;;;;;2.05;1.50;;;;;;;-148.56;100.00;61375.16;4923745;28;20026;-30
2022/08/01 01:02:11;;;;;;;3.88;1.63;;;;;;;-148.56;100.00;61375.16;4916112;28;20023;-32
2022/08/01 01:04:36;;;;;;;3.35;1.50;;;;;;;-148.56;100.00;61375.16;4925756;28;21166;-28
2022/08/01 01:07:09;;;;;;;2.25;1.58;;;;;;;-148.56;100.00;61375.16;4920636;28;20208;-29
2022/08/01 01:09:50;;;;;;;1.75;1.40;;;;;;;-148.56;100.00;61375.16;4924356;28;20367;-30
2022/08/01 01:12:38;;;;;;;2.80;1.58;;;;;;;-148.56;100.00;61375.16;4922604;28;20027;-28
2022/08/01 01:15:22;;;;;;;3.72;1.60;;;;;;;-148.56;100.00;61375.16;4924166;28;21000;-32
2022/08/01 01:18:03;;;;;;;2.13;1.50;;;;;;;-148.56;100.00;61375.16;4910256;28;20058;-25
2022/08/01 01:20:35;;;;;;;3.70;1.55;;;;;;;-148.56;100.00;61375.16;4926639;28;20759;-33
2022/08/01 01:23:39;;;;;;;3.55;1.60;;;;;;;-148.56;100.00;61375.16;4921889;28;20057;-26
2022/08/01 01:26:09;;;;;;;1.80;1.50;;;;;;;-148.56;100.00;61375.16;4920328;28;20116;-25
2022/08/01 01:28:52;;;;;;;2.20;1.80;;;;;;;-148.56;100.00;61375.16;4927536;28;20593;-32
2022/08/01 01:31:18;;;;;;;1.90;1.60;;;;;;;-148.56;100.00;61375.16;4922802;28;20053;-29
2022/08/01 01:33:43;;;;;;;2.95;1.80;;;;;;;-148.56;100.00;61375.16;4904067;28;20160;-29
2022/08/01 01:36:09;;;;;;;2.45;1.70;;;;;;;-148.56;100.00;61375.16;4922141;28;21197;-29
2022/08/01 01:38:41;;;;;;;1.85;1.70;;;;;;;-148.56;100.00;61375.16;4905362;28;20046;-28
2022/08/01 01:41:07;;;;;;;3.75;1.60;;;;;;;-148.56;100.00;61375.16;4922781;28;20432;-29
2022/08/01 01:43:32;;;;;;;2.97;1.63;;;;;;;-148.56;100.00;61375.16;4903911;28;20514;-31
2022/08/01 01:45:58;;;;;;;3.28;1.65;;;;;;;-148.56;100.00;61375.16;4908810;28;20164;-32
2022/08/01 01:48:23;;;;;;;1.33;1.23;;;;;;;-148.56;100.00;61375.16;4927436;28;20046;-30
2022/08/01 01:50:48;;;;;;;4.60;1.58;;;;;;;-148.56;100.00;61375.16;4924573;28;20088;-30
2022/08/01 01:53:15;;;;;;;1.83;1.60;;;;;;;-148.56;100.00;61375.16;4909326;28;20031;-29
2022/08/01 01:55:41;;;;;;;1.63;1.30;;;;;;;-148.56;100.00;61375.16;4904743;28;20031;-27
2022/08/01 01:58:07;;;;;;;4.55;2.15;;;;;;;-148.56;100.00;61375.16;4925837;28;20704;-26
2022/08/01 02:00:32;;;;;;;1.85;1.50;;;;;;;-148.56;100.00;61375.16;4920969;28;20027;-28
2022/08/01 02:02:58;;;;;;;2.15;1.70;;;;;;;-148.56;100.00;61375.16;4904380;28;20042;-29
2022/08/01 02:05:23;;;;;;;5.05;1.60;;;;;;;-148.56;100.00;61375.16;4901834;28;20069;-28
2022/08/01 02:07:48;;;;;;;4.22;1.52;;;;;;;-148.56;100.00;61375.16;4925566;28;20902;-28
2022/08/01 02:10:15;;;;;;;1.52;1.42;;;;;;;-148.56;100.00;61375.16;4926116;28;20023;-27
2022/08/01 02:12:42;;;;;;;2.95;1.60;;;;;;;-148.56;100.00;61375.16;4906187;28;20053;-29
2022/08/01 02:15:09;;;;;;;2.22;1.63;;;;;;;-148.56;100.00;61375.16;4914873;28;20037;-27
2022/08/01 02:17:36;;;;;;;1.80;1.50;;;;;;;-148.56;100.00;61375.16;4923293;28;20548;-31
2022/08/01 02:20:01;;;;;;;4.88;1.70;;;;;;;-148.56;100.00;61375.16;4926278;28;20647;-28
2022/08/01 02:22:35;;;;;;;2.70;1.75;;;;;;;-148.56;100.00;61375.16;4925013;28;20043;-29
2022/08/01 02:25:07;;;;;;;2.40;1.73;;;;;;;-148.56;100.00;61375.16;4901460;28;20133;-27
2022/08/01 02:27:40;;;;;;;3.15;2.00;;;;;;;-148.56;100.00;61375.16;4918964;28;20782;-30
2022/08/01 02:30:07;;;;;;;5.35;1.67;;;;;;;-148.56;100.00;61375.16;4922096;28;20161;-29
2022/08/01 02:32:41;;;;;;;3.90;1.80;;;;;;;-148.56;100.00;61375.16;4922354;28;20079;-28
2022/08/01 02:35:13;;;;;;;3.47;1.70;;;;;;;-148.56;100.00;61375.16;4933272;28;20027;-26
2022/08/01 02:37:38;;;;;;;3.08;1.63;;;;;;;-148.56;100.00;61375.16;4919319;28;20739;-29
2022/08/01 02:40:04;;;;;;;1.90;1.65;;;;;;;-148.56;100.00;61375.16;4922376;28;20026;-28
2022/08/01 02:42:30;;;;;;;8.15;1.90;;;;;;;-148.56;100.00;61375.16;4921032;28;20100;-28
2022/08/01 02:44:56;;;;;;;2.45;1.85;;;;;;;-148.56;100.00;61375.16;4921865;28;20062;-27
2022/08/01 02:47:21;;;;;;;1.75;1.55;;;;;;;-148.56;100.00;61375.16;4925842;28;20784;-29
2022/08/01 02:49:47;;;;;;;2.63;1.70;;;;;;;-148.56;100.00;61375.16;4908523;28;20050;-32
2022/08/01 02:52:16;;;;;;;2.50;1.65;;;;;;;-148.56;100.00;61375.16;4919206;28;20334;-32
2022/08/01 02:54:42;;;;;;;2.42;1.55;;;;;;;-148.56;100.00;61375.16;4919426;28;20771;-29
2022/08/01 02:57:08;;;;;;;2.50;1.70;;;;;;;-148.56;100.00;61375.16;4923847;28;20050;-29
2022/08/01 02:59:34;;;;;;;3.10;1.88;;;;;;;-148.56;100.00;61375.16;4924658;28;20054;-24
2022/08/01 03:01:59;;;;;;;1.67;1.40;;;;;;;-148.56;100.00;61375.16;4927046;28;20073;-24
2022/08/01 03:04:25;;;;;;;3.85;1.73;;;;;;;-148.56;100.00;61375.16;4912318;28;20841;-30
2022/08/01 03:06:51;;;;;;;2.03;1.65;;;;;;;-148.56;100.00;61375.16;4922915;28;20764;-30
2022/08/01 03:09:17;;;;;;;3.10;1.58;;;;;;;-148.56;100.00;61375.16;4925270;28;20116;-28
2022/08/01 03:11:42;;;;;;;1.52;1.42;;;;;;;-148.56;100.00;61375.16;4921076;28;20725;-26
2022/08/01 03:14:09;;;;;;;5.70;1.77;;;;;;;-148.56;100.00;61375.16;4921506;28;20061;-31
2022/08/01 03:16:35;;;;;;;1.85;1.70;;;;;;;-148.56;100.00;61375.16;4904778;28;20030;-31
2022/08/01 03:19:01;;;;;;;2.15;1.95;;;;;;;-148.56;100.00;61375.16;4906454;28;20794;-30
2022/08/01 03:21:27;;;;;;;3.95;1.70;;;;;;;-148.56;100.00;61375.16;4919186;28;20034;-29
2022/08/01 03:23:56;;;;;;;3.20;1.83;;;;;;;-148.56;100.00;61375.16;4913586;28;20775;-28
2022/08/01 03:26:24;;;;;;;3.30;1.70;;;;;;;-148.56;100.00;61375.16;4924639;28;20046;-27
2022/08/01 03:28:49;;;;;;;4.05;2.03;;;;;;;-148.56;100.00;61375.16;4924727;28;20215;-30
2022/08/01 03:31:14;;;;;;;2.33;1.65;;;;;;;-148.56;100.00;61375.16;4929243;28;20027;-28
2022/08/01 03:33:40;;;;;;;2.30;1.55;;;;;;;-148.56;100.00;61375.16;4922486;28;20059;-26
2022/08/01 03:36:05;;;;;;;3.50;1.63;;;;;;;-148.56;100.00;61375.16;4922585;28;20030;-26
2022/08/01 03:38:31;;;;;;;2.67;1.63;;;;;;;-148.56;100.00;61375.16;4925188;28;20712;-27
2022/08/01 03:41:02;;;;;;;3.53;1.70;;;;;;;-148.56;100.00;61375.16;4922292;28;20037;-28
2022/08/01 03:43:37;;;;;;;2.75;1.98;;;;;;;-148.56;100.00;61375.16;4921002;28;20043;-26
2022/08/01 03:46:07;;;;;;;3.45;1.88;;;;;;;-148.56;100.00;61375.16;4905275;28;20031;-27
2022/08/01 03:48:36;;;;;;;1.63;1.53;;;;;;;-148.56;100.00;61375.16;4922370;28;20030;-28
2022/08/01 03:51:01;;;;;;;5.35;2.00;;;;;;;-148.56;100.00;61375.16;4922922;28;22557;-29
2022/08/01 03:53:29;;;;;;;4.53;2.13;;;;;;;-148.56;100.00;61375.16;4928497;28;20099;-29
2022/08/01 03:55:55;;;;;;;2.60;1.73;;;;;;;-148.56;100.00;61375.16;4906234;28;20049;-34
2022/08/01 03:58:20;;;;;;;4.05;1.90;;;;;;;-148.56;100.00;61375.16;4928021;28;20027;-27
2022/08/01 04:00:46;;;;;;;5.20;1.70;;;;;;;-148.56;100.00;61375.16;4918439;28;20035;-26
2022/08/01 04:03:13;;;;;;;3.08;2.00;;;;;;;-148.56;100.00;61375.16;4922400;28;20035;-30
2022/08/01 04:05:42;;;;;;;5.57;1.92;;;;;;;-148.56;100.00;61375.16;4925136;28;20443;-30
2022/08/01 04:08:07;;;;;;;5.43;2.10;;;;;;;-148.56;100.00;61375.16;4922343;28;20038;-28
2022/08/01 04:10:33;;;;;;;7.45;1.70;;;;;;;-148.56;100.00;61375.16;4925402;28;20043;-28
2022/08/01 04:12:58;;;;;;;3.38;1.70;;;;;;;-148.56;100.00;61375.16;4921417;28;20037;-29
2022/08/01 04:15:24;;;;;;;2.50;1.75;;;;;;;-148.56;100.00;61375.16;4907162;28;20126;-31
2022/08/01 04:17:49;;;;;;;3.85;2.08;;;;;;;-148.56;100.00;61375.16;4927533;28;20035;-28
2022/08/01 04:20:15;;;;;;;4.25;1.83;;;;;;;-148.56;100.00;61375.16;4922458;28;20095;-29
2022/08/01 04:22:41;;;;;;;2.85;1.88;;;;;;;-148.56;100.00;61375.16;4924888;28;20123;-27
2022/08/01 04:25:29;;;;;;;3.22;1.60;;;;;;;-148.56;100.00;61375.16;4928088;28;20303;-26
2022/08/01 04:27:54;;;;;;;4.18;1.60;;;;;;;-148.56;100.00;61375.16;4920746;28;20032;-30
2022/08/01 04:30:25;;;;;;;2.67;1.60;;;;;;;-148.56;100.00;61375.16;4921073;28;20261;-30
2022/08/01 04:32:51;;;;;;;3.58;1.60;;;;;;;-148.56;100.00;61375.16;4952081;28;20136;-30
2022/08/01 04:35:16;;;;;;;3.60;2.08;;;;;;;-148.56;100.00;61375.16;4920016;28;21062;-28
2022/08/01 04:37:43;;;;;;;1.70;1.60;;;;;;;-148.56;100.00;61375.16;4925733;28;20033;-27
2022/08/01 04:40:08;;;;;;;2.72;1.92;;;;;;;-148.56;100.00;61375.16;4923194;28;20161;-29
2022/08/01 04:42:34;;;;;;;2.15;1.88;;;;;;;-148.56;100.00;61375.16;4918775;28;20035;-30
2022/08/01 04:44:59;;;;;;;2.10;1.90;;;;;;;-148.56;100.00;61375.16;4947503;28;20121;-31
2022/08/01 04:47:25;;;;;;;2.88;1.60;;;;;;;-148.56;100.00;61375.16;4924583;28;20031;-28
2022/08/01 04:49:51;;;;;;;2.70;1.92;;;;;;;-148.56;100.00;61375.16;4909847;28;20106;-25
2022/08/01 04:52:17;;;;;;;3.30;1.75;;;;;;;-148.56;100.00;61375.16;4927099;28;20834;-28
2022/08/01 04:54:43;;;;;;;3.28;2.10;;;;;;;-148.56;100.00;61375.16;4924061;28;20633;-28
2022/08/01 04:57:08;;;;;;;2.58;1.95;;;;;;;-148.56;100.00;61375.16;4926638;28;20499;-28
2022/08/01 04:59:41;;;;;;;2.83;2.13;;;;;;;-148.56;100.00;61375.16;4920944;28;20338;-28
2022/08/01 05:02:06;;;;;;;3.97;2.25;;;;;;;-148.56;100.00;61375.16;4922073;28;20045;-29
2022/08/01 05:04:32;;;;;;;2.50;1.92;;;;;;;-148.56;100.00;61375.16;4928106;28;20896;-27
2022/08/01 05:06:57;;;;;;;3.45;2.00;;;;;;;-148.56;100.00;61375.16;4924318;28;20058;-27
2022/08/01 05:09:23;;;;;;;4.05;1.98;;;;;;;-148.56;100.00;61375.16;4926529;28;20035;-29
2022/08/01 05:11:48;;;;;;;4.55;2.10;;;;;;;-148.56;100.00;61375.16;4926556;28;20139;-29
2022/08/01 05:14:14;;;;;;;2.75;2.00;;;;;;;-148.56;100.00;61375.16;4923779;28;20747;-31
2022/08/01 05:16:40;;;;;;;2.35;1.85;;;;;;;-148.56;100.00;61375.16;4924837;28;20035;-29
2022/08/01 05:19:05;;;;;;;3.67;1.90;;;;;;;-148.56;100.00;61375.16;4922157;28;20199;-31
2022/08/01 05:21:30;;;;;;;3.55;2.10;;;;;;;-148.56;100.00;61375.16;4926031;28;20085;-29
2022/08/01 05:23:56;;;;;;;2.92;2.08;;;;;;;-148.56;100.00;61375.16;4920052;28;20034;-31
2022/08/01 05:26:21;;;;;;;4.35;2.10;;;;;;;-148.56;100.00;61375.16;4922848;28;20043;-26
2022/08/01 05:28:47;;;;;;;5.93;2.08;;;;;;;-148.56;100.00;61375.16;4924688;28;20058;-29
2022/08/01 05:31:12;;;;;;;3.75;2.03;;;;;;;-148.56;100.00;61375.16;4920125;28;20034;-31
2022/08/01 05:33:37;;;;;;;5.63;2.25;;;;;;;-148.56;100.00;61375.16;4922525;28;20038;-32
2022/08/01 05:36:03;;;;;;;5.90;2.20;;;;;;;-148.56;100.00;61375.16;4924593;28;20035;-29
2022/08/01 05:38:28;;;;;;;6.35;2.10;;;;;;;-148.56;100.00;61375.16;4928235;28;20061;-30
2022/08/01 05:40:54;;;;;;;5.75;1.85;;;;;;;-148.56;100.00;61375.16;4922027;28;20511;-30
2022/08/01 05:43:19;;;;;;;6.32;2.30;;;;;;;-148.56;100.00;61375.16;4916533;28;20121;-27
2022/08/01 05:45:45;;;;;;;9.82;2.20;;;;;;;-148.56;100.00;61375.16;4921835;28;20039;-30
2022/08/01 05:48:11;;;;;;;9.55;2.53;;;;;;;-148.56;100.00;61375.16;4923177;28;20117;-28
2022/08/01 05:50:36;;;;;;;7.10;2.28;;;;;;;-148.56;100.00;61375.16;4923041;28;20030;-26
2022/08/01 05:53:02;;;;;;;13.55;2.60;;;;;;;-148.56;100.00;61375.16;4925401;28;20030;-25
2022/08/01 05:55:27;;;;;;;11.30;2.83;;;;;;;-148.56;100.00;61375.16;4921264;28;20035;-29
2022/08/01 05:57:52;;;;;;;23.77;3.05;;;;;;;-148.56;100.00;61375.16;4924182;28;20354;-29
2022/08/01 06:00:18;;;;;;;27.77;3.90;;;;;;;-148.56;100.00;61375.16;4915796;28;20041;-25
2022/08/01 06:02:43;;;;;;;16.15;3.30;;;;;;;-148.56;100.00;61375.16;4927089;28;20039;-27
2022/08/01 06:05:09;;;;;;;23.80;2.97;;;;;;;-148.56;100.00;61375.16;4925427;28;20140;-27
2022/08/01 06:07:34;;;;;;;10.45;2.60;;;;;;;-148.56;100.00;61375.16;4927156;28;20059;-27
2022/08/01 06:10:00;;;;;;;13.48;2.95;;;;;;;-148.56;100.00;61375.16;4923928;28;20038;-29
2022/08/01 06:12:25;;;;;;;14.60;2.78;;;;;;;-148.56;100.00;61375.16;4919870;28;20665;-28
2022/08/01 06:14:51;;;;;;;9.60;2.72;;;;;;;-148.56;100.00;61375.16;4921229;28;20051;-28
2022/08/01 06:17:16;;;;;;;12.13;2.70;;;;;;;-148.56;100.00;61375.16;4919869;28;20035;-26
2022/08/01 06:19:42;;;;;;;12.70;3.00;;;;;;;-148.56;100.00;61375.16;4920963;28;20027;-26
2022/08/01 06:22:07;;;;;;;14.63;2.92;;;;;;;-148.56;100.00;61375.16;4923012;28;20050;-32
2022/08/01 06:24:33;;;;;;;25.23;4.00;;;;;;;-148.56;100.00;61375.16;4920026;28;20035;-30
2022/08/01 06:26:58;;;;;;;24.63;3.50;;;;;;;-148.56;100.00;61375.16;4923213;28;20109;-26
2022/08/01 06:29:24;;;;;;;17.98;3.70;;;;;;;-148.56;100.00;61375.16;4906127;28;21392;-28
2022/08/01 06:31:49;;;;;;;20.90;3.00;;;;;;;-148.56;100.00;61375.16;4915467;28;20057;-25
2022/08/01 06:34:15;;;;;;;16.42;2.85;;;;;;;-148.56;100.00;61375.16;4912398;28;21577;-27
2022/08/01 06:36:40;;;;;;;17.77;3.20;;;;;;;-148.56;100.00;61375.16;4919457;28;20042;-28
2022/08/01 06:39:06;;;;;;;15.23;2.83;;;;;;;-148.56;100.00;61375.16;4924781;28;20039;-25
2022/08/01 06:41:31;;;;;;;16.70;3.33;;;;;;;-148.56;100.00;61375.16;4917278;28;20023;-28
2022/08/01 06:43:57;;;;;;;11.68;3.08;;;;;;;-148.56;100.00;61375.16;4942977;28;21171;-25
2022/08/01 06:46:22;;;;;;;19.08;2.70;;;;;;;-148.56;100.00;61375.16;4941866;28;20034;-32
2022/08/01 06:48:48;;;;;;;8.07;2.58;;;;;;;-148.56;100.00;61375.16;4939004;28;20046;-28
2022/08/01 06:51:15;;;;;;;17.50;3.15;;;;;;;-148.56;100.00;61375.16;4942461;28;20026;-26
2022/08/01 06:53:40;;;;;;;13.50;2.95;;;;;;;-148.56;100.00;61375.16;4944215;28;20026;-29
2022/08/01 06:56:06;;;;;;;11.32;2.30;;;;;;;-148.56;100.00;61375.16;4943493;28;20517;-28
2022/08/01 06:58:31;;;;;;;17.50;2.20;;;;;;;-148.56;100.00;61375.16;4950653;28;20038;-30
2022/08/01 07:00:57;;;;;;;11.27;2.30;;;;;;;-148.56;100.00;61375.16;4942750;28;20047;-30
2022/08/01 07:03:22;;;;;;;4.32;1.70;;;;;;;-148.56;100.00;61375.16;4949132;28;20061;-32
2022/08/01 07:05:48;;;;;;;6.90;1.73;;;;;;;-148.56;100.00;61375.16;4948816;28;20101;-29
2022/08/01 07:08:13;;;;;;;4.50;1.70;;;;;;;-148.56;100.00;61375.16;4946823;28;20957;-27
2022/08/01 07:10:38;;;;;;;8.27;1.85;;;;;;;-148.56;100.00;61375.16;4939850;28;20050;-28
2022/08/01 07:13:04;;;;;;;3.25;1.40;;;;;;;-148.56;100.00;61375.16;4946224;28;20022;-30
2022/08/01 07:15:29;;;;;;;2.50;1.70;;;;;;;-148.56;100.00;61375.16;4949649;28;20913;-25
2022/08/01 07:17:56;;;;;;;3.75;1.60;;;;;;;-148.56;100.00;61375.16;4943844;28;20034;-28
2022/08/01 07:20:21;;;;;;;6.00;1.70;;;;;;;-148.56;100.00;61375.16;4945476;28;20645;-28
2022/08/01 07:22:46;;;;;;;4.15;1.60;;;;;;;-148.56;100.00;61375.16;4943434;28;20037;-28
2022/08/01 07:25:12;;;;;;;2.47;1.95;;;;;;;-148.56;100.00;61375.16;4941622;28;20149;-30
2022/08/01 07:27:37;;;;;;;2.47;1.58;;;;;;;-148.56;100.00;61375.16;4938201;28;20038;-27
2022/08/01 07:30:04;;;;;;;2.53;1.80;;;;;;;-148.56;100.00;61375.16;4943551;28;20030;-30
2022/08/01 07:32:29;;;;;;;1.58;1.48;;;;;;;-148.56;100.00;61375.16;4938589;28;20168;-27
2022/08/01 07:34:55;;;;;;;2.47;1.52;;;;;;;-148.56;100.00;61375.16;4941264;28;20088;-29
2022/08/01 07:37:20;;;;;;;6.47;1.75;;;;;;;-148.56;100.00;61375.16;4939448;28;20030;-27
2022/08/01 07:39:46;;;;;;;5.40;1.70;;;;;;;-148.56;100.00;61375.16;4936329;28;20425;-29
2022/08/01 07:42:11;;;;;;;1.63;1.38;;;;;;;-148.56;100.00;61375.16;4938728;28;20026;-29
2022/08/01 07:44:37;;;;;;;3.50;1.45;;;;;;;-148.56;100.00;61375.16;4947659;28;20782;-28
2022/08/01 07:47:03;;;;;;;2.10;1.63;;;;;;;-148.56;100.00;61375.16;4945922;28;20065;-32
2022/08/01 07:49:28;;;;;;;4.30;1.73;;;;;;;-148.56;100.00;61375.16;4942153;28;20872;-29
2022/08/01 07:51:54;;;;;;;2.47;1.58;;;;;;;-148.56;100.00;61375.16;4950535;28;20937;-30
2022/08/01 07:54:19;;;;;;;3.25;1.67;;;;;;;-148.56;100.00;61375.16;4939579;28;20113;-29
2022/08/01 07:56:45;;;;;;;2.97;1.95;;;;;;;-148.56;100.00;61375.16;4943137;28;20833;-27
2022/08/01 07:59:10;;;;;;;3.03;2.00;;;;;;;-148.56;100.00;61375.16;4943821;28;20030;-27
2022/08/01 08:01:35;;;;;;;4.03;2.05;;;;;;;-148.56;100.00;61375.16;4934105;28;20050;-28
2022/08/01 08:04:01;;;;;;;4.03;2.20;;;;;;;-148.56;100.00;61375.16;4945127;28;20041;-30
2022/08/01 08:06:26;;;;;;;3.20;2.25;;;;;;;-148.56;100.00;61375.16;4946041;28;20625;-30
2022/08/01 08:08:53;;;;;;;3.20;2.00;;;;;;;-148.56;100.00;61375.16;4935065;28;20041;-27
2022/08/01 08:11:19;;;;;;;4.57;2.25;;;;;;;-148.56;100.00;61375.16;4930664;28;20030;-30
2022/08/01 08:13:44;;;;;;;2.92;2.17;;;;;;;-148.56;100.00;61375.16;4943561;28;20112;-30
2022/08/01 08:16:09;;;;;;;6.25;2.25;;;;;;;-148.56;100.00;61375.16;4937686;28;20027;-34
2022/08/01 08:18:35;;;;;;;4.18;2.05;;;;;;;-148.56;100.00;61375.16;4935240;28;20046;-26
2022/08/01 08:21:00;;;;;;;4.68;2.50;;;;;;;-148.56;100.00;61375.16;4946664;28;20104;-31
2022/08/01 08:26:10;;;;;;;4.32;2.58;;;;;;;-148.56;100.00;61375.16;4939832;28;20041;-28
2022/08/01 08:28:36;;;;;;;4.47;2.67;;;;;;;-148.56;100.00;61375.16;4942770;28;20054;-29
2022/08/01 08:31:01;;;;;;;3.97;2.80;;;;;;;-148.56;100.00;61375.16;4942724;28;21041;-29
2022/08/01 08:33:27;;;;;;;6.93;2.63;;;;;;;-148.56;100.00;61375.16;4941169;28;20026;-29
2022/08/01 08:35:54;;;;;;;6.30;2.80;;;;;;;-148.56;100.00;61375.16;4946024;28;20786;-29
2022/08/01 08:38:19;;;;;;;2.55;2.35;;;;;;;-148.56;100.00;61375.16;4945035;28;20105;-29
2022/08/01 08:40:44;;;;;;;3.50;2.47;;;;;;;-148.56;100.00;61375.16;4929079;28;20311;-29
2022/08/01 08:43:10;;;;;;;2.78;2.42;;;;;;;-148.56;100.00;61375.16;4941019;28;20545;-30
2022/08/01 08:45:35;;;;;;;4.78;2.80;;;;;;;-148.56;100.00;61375.16;4938877;28;20038;-26
2022/08/01 08:48:00;;;;;;;3.13;2.58;;;;;;;-148.56;100.00;61375.16;4936814;28;20041;-25
2022/08/01 08:50:26;;;;;;;5.35;2.85;;;;;;;-148.56;100.00;61375.16;4933902;28;20983;-33
2022/08/01 08:52:53;;;;;;;4.13;2.90;;;;;;;-148.56;100.00;61375.16;4938206;28;20562;-25
2022/08/01 08:55:18;;;;;;;4.32;2.70;;;;;;;-148.56;100.00;61375.16;4940764;28;20037;-30
2022/08/01 08:57:44;;;;;;;7.65;2.85;;;;;;;-148.56;100.00;61375.16;4937573;28;20327;-31
2022/08/01 09:00:11;;;;;;;10.00;3.03;;;;;;;-148.56;100.00;61375.16;4939464;28;20057;-27
2022/08/01 09:02:42;;;;;;;6.13;3.00;;;;;;;-148.56;100.00;61375.16;4928520;28;20131;-32
2022/08/01 09:05:08;;;;;;;7.82;2.75;;;;;;;-148.56;100.00;61375.16;4940286;28;20034;-31
2022/08/01 09:07:33;;;;;;;4.78;2.60;;;;;;;-148.56;100.00;61375.16;4930028;28;20121;-27
2022/08/01 09:09:59;;;;;;;9.75;3.13;;;;;;;-148.56;100.00;61375.16;4943609;28;20828;-28
2022/08/01 09:12:24;;;;;;;4.20;2.80;;;;;;;-148.56;100.00;61375.16;4942674;28;20037;-29
2022/08/01 09:14:53;;;;;;;6.45;2.78;;;;;;;-148.56;100.00;61375.16;4947158;28;20041;-27
2022/08/01 09:17:18;;;;;;;9.15;2.63;;;;;;;-148.56;100.00;61375.16;4940839;28;20030;-27
2022/08/01 09:19:47;;;;;;;8.90;2.88;;;;;;;-148.56;100.00;61375.16;4948093;28;20058;-29
2022/08/01 09:22:17;;;;;;;8.70;3.03;;;;;;;-148.56;100.00;61375.16;4942278;28;20092;-30
2022/08/01 09:24:43;;;;;;;4.65;2.78;;;;;;;-148.56;100.00;61375.16;4945659;28;20038;-30
2022/08/01 09:27:23;;;;;;;5.85;2.80;;;;;;;-148.56;100.00;61375.16;4927703;28;20049;-29
2022/08/01 09:29:50;;;;;;;5.78;2.65;;;;;;;-148.56;100.00;61375.16;4949290;28;20030;-27
2022/08/01 09:32:15;;;;;;;6.55;2.90;;;;;;;-148.56;100.00;61375.16;4935009;28;20026;-30
2022/08/01 09:34:41;;;;;;;6.43;2.88;;;;;;;-148.56;100.00;61375.16;4940950;28;20913;-26
2022/08/01 09:37:06;;;;;;;4.60;2.75;;;;;;;-148.56;100.00;61375.16;4945955;28;20029;-29
2022/08/01 09:39:33;;;;;;;8.38;2.88;;;;;;;-148.56;100.00;61375.16;4945350;28;20501;-27
2022/08/01 09:42:00;;;;;;;5.03;3.00;;;;;;;-148.56;100.00;61375.16;4942438;28;20040;-26
2022/08/01 09:44:38;;;;;;;4.47;2.72;;;;;;;-148.56;100.00;61375.16;4943678;28;20032;-28
2022/08/01 09:47:04;;;;;;;4.68;2.70;;;;;;;-148.56;100.00;61375.16;4940217;28;20496;-31
2022/08/01 09:49:31;;;;;;;7.03;2.60;;;;;;;-148.56;100.00;61375.16;4942143;28;20630;-27
2022/08/01 09:51:57;;;;;;;3.88;2.42;;;;;;;-148.56;100.00;61375.16;4945605;28;20132;-28
2022/08/01 09:54:30;;;;;;;7.20;2.50;;;;;;;-148.56;100.00;61375.16;4947392;28;20919;-30
2022/08/01 09:56:56;;;;;;;4.85;2.80;;;;;;;-148.56;100.00;61375.16;4940241;28;20045;-27
2022/08/01 09:59:21;;;;;;;4.18;2.60;;;;;;;-148.56;100.00;61375.16;4924696;28;20042;-29
2022/08/01 10:01:48;;;;;;;10.13;2.60;;;;;;;-148.56;100.00;61375.16;4941976;28;20215;-29
2022/08/01 10:04:19;;;;;;;3.17;2.28;;;;;;;-148.56;100.00;61375.16;4937988;28;20037;-28
2022/08/01 10:06:46;;;;;;;4.05;2.67;;;;;;;-148.56;100.00;61375.16;4925203;28;20057;-25
2022/08/01 10:09:13;;;;;;;4.25;2.50;;;;;;;-148.56;100.00;61375.16;4942397;28;20026;-26
2022/08/01 10:11:40;;;;;;;5.10;2.53;;;;;;;-148.56;100.00;61375.16;4945684;28;20900;-27
2022/08/01 10:14:06;;;;;;;4.30;2.40;;;;;;;-148.56;100.00;61375.16;4941776;28;20040;-28
2022/08/01 10:16:32;;;;;;;4.22;2.17;;;;;;;-148.56;100.00;61375.16;4935725;28;20109;-29
2022/08/01 10:18:57;;;;;;;4.45;2.50;;;;;;;-148.56;100.00;61375.16;4942622;28;20527;-29
2022/08/01 10:21:23;;;;;;;6.03;2.30;;;;;;;-148.56;100.00;61375.16;4939292;28;20291;-28
2022/08/01 10:23:48;;;;;;;6.10;2.28;;;;;;;-148.56;100.00;61375.16;4940344;28;20026;-28
2022/08/01 10:26:14;;;;;;;4.22;2.50;;;;;;;-148.56;100.00;61375.16;4936240;28;20054;-28
2022/08/01 10:28:39;;;;;;;3.63;2.40;;;;;;;-148.56;100.00;61375.16;4925452;28;20050;-28
2022/08/01 10:31:05;;;;;;;3.20;2.22;;;;;;;-148.56;100.00;61375.16;4945841;28;20477;-29
2022/08/01 10:33:30;;;;;;;5.30;2.17;;;;;;;-148.56;100.00;61375.16;4938351;28;20216;-28
2022/08/01 10:35:56;;;;;;;5.75;2.47;;;;;;;-148.56;100.00;61375.16;4942685;28;20038;-27
2022/08/01 10:38:23;;;;;;;3.90;2.60;;;;;;;-148.56;100.00;61375.16;4948195;28;20030;-31
2022/08/01 10:40:48;;;;;;;4.75;2.40;;;;;;;-148.56;100.00;61375.16;4944291;28;20034;-31
2022/08/01 10:43:14;;;;;;;4.00;1.98;;;;;;;-148.56;100.00;61375.16;4944430;28;20705;-27
2022/08/01 10:45:40;;;;;;;4.82;2.55;;;;;;;-148.56;100.00;61375.16;4925962;28;20034;-27
2022/08/01 10:48:15;;;;;;;4.50;2.00;;;;;;;-148.56;100.00;61375.16;4917813;28;20144;-26
2022/08/01 10:50:42;;;;;;;3.45;2.30;;;;;;;-148.56;100.00;61375.16;4947425;28;20030;-29
2022/08/01 10:53:13;;;;;;;5.00;2.30;;;;;;;-148.56;100.00;61375.16;4937179;28;21109;-29
2022/08/01 10:56:07;;;;;;;4.20;2.50;;;;;;;-148.56;100.00;61375.16;4935506;28;20038;-27
2022/08/01 10:58:37;;;;;;;4.25;2.30;;;;;;;-148.56;100.00;61375.16;4942899;28;20818;-31
2022/08/01 11:01:14;;;;;;;3.70;1.90;;;;;;;-148.56;100.00;61375.16;4938888;28;20407;-28
2022/08/01 11:03:43;;;;;;;6.20;2.22;;;;;;;-148.56;100.00;61375.16;4943027;28;20062;-27
2022/08/01 11:06:20;;;;;;;2.38;1.83;;;;;;;-148.56;100.00;61375.16;4935847;28;20038;-29
2022/08/01 11:08:53;;;;;;;2.58;1.92;;;;;;;-148.56;100.00;61375.16;4940768;28;20505;-32
2022/08/01 11:11:19;;;;;;;3.20;2.00;;;;;;;-148.56;100.00;61375.16;4931913;28;20144;-28